Terminal Aerodrome Forecast
Issued by NWS

Home | Current Version | Previous Version | Text Only | Print | Product List | Glossary On
Versions: 1 2 3 4 5 6 7 8 9 10 11 12 13 14
000
FTAK31 PANC 250530
TAFAIL
TAF
PAIL 250530Z 2506/2606 11010KT P6SM VCSH BKN060
     FM250800 10015KT P6SM FEW060 SCT200
     FM251700 09016G25KT P6SM VCSH OVC080
     FM252000 09023G36KT P6SM BKN070=

USA.gov is the U.S. government's official web portal to all federal, state and local government web resources and services.